createdAt,value
2023-04-10T00:02:16.544Z,83.88
2023-04-10T00:17:18.244Z,81.83
2023-04-10T00:32:19.919Z,79.76
2023-04-10T00:47:22.214Z,79.52
2023-04-10T01:02:24.106Z,80.59
2023-04-10T01:17:36.585Z,78.08
2023-04-10T01:32:41.565Z,77.92
2023-04-10T01:47:43.503Z,78.22
2023-04-10T02:02:45.893Z,75.98
2023-04-10T02:17:48.178Z,77.23
2023-04-10T02:32:49.930Z,78.09
2023-04-10T02:47:51.905Z,78.12
2023-04-10T03:02:54.048Z,75.57
2023-04-10T03:17:56.771Z,76.19
2023-04-10T03:32:58.472Z,76.13
2023-04-10T03:48:00.218Z,79.20
2023-04-10T04:03:05.100Z,87.67
2023-04-10T04:18:06.945Z,80.66
2023-04-10T04:33:08.676Z,82.28
2023-04-10T04:48:10.410Z,81.84
2023-04-10T05:03:12.349Z,78.44
2023-04-10T05:18:14.381Z,77.66
2023-04-10T05:33:16.193Z,77.25
2023-04-10T05:48:18.923Z,76.95
2023-04-10T06:03:20.770Z,77.36
2023-04-10T06:18:22.405Z,77.26
2023-04-10T06:33:26.233Z,76.23
2023-04-10T06:48:28.287Z,76.45
2023-04-10T07:03:31.438Z,73.96
2023-04-10T07:18:33.173Z,78.47
2023-04-10T07:33:36.258Z,78.05
2023-04-10T07:48:37.948Z,77.38
2023-04-10T08:03:46.762Z,78.04
2023-04-10T08:18:48.637Z,77.62
2023-04-10T08:33:50.783Z,77.76
2023-04-10T08:49:01.033Z,76.86
2023-04-10T09:04:02.836Z,76.64
2023-04-10T09:19:06.503Z,77.06
2023-04-10T09:34:19.426Z,76.88
2023-04-10T09:49:21.053Z,75.90
2023-04-10T10:04:23.376Z,76.69
2023-04-10T10:19:33.498Z,76.05
2023-04-10T10:34:35.871Z,73.38
2023-04-10T10:49:54.511Z,72.46
2023-04-10T11:04:56.218Z,71.03
2023-04-10T11:20:00.124Z,65.31
2023-04-10T11:35:03.654Z,66.69
2023-04-10T11:50:08.128Z,74.99
2023-04-10T12:05:09.955Z,71.39
2023-04-10T12:20:12.023Z,67.93
2023-04-10T12:35:13.799Z,74.44
2023-04-10T12:50:17.548Z,83.00
2023-04-10T13:05:19.473Z,78.07
2023-04-10T13:20:22.505Z,77.01
2023-04-10T13:35:24.213Z,76.91
2023-04-10T13:50:25.880Z,76.68
2023-04-10T14:05:27.596Z,76.22
2023-04-10T14:20:29.238Z,76.78
2023-04-10T14:35:30.912Z,75.45
2023-04-10T14:50:33.645Z,73.36
2023-04-10T15:05:35.486Z,75.00
2023-04-10T15:20:37.547Z,77.16
2023-04-10T15:35:39.295Z,74.76
2023-04-10T15:50:41.569Z,73.21
2023-04-10T16:05:43.213Z,72.37
2023-04-10T16:20:44.877Z,71.91
2023-04-10T16:35:47.817Z,72.71
2023-04-10T16:50:49.624Z,94.15
2023-04-10T17:05:51.417Z,100.00
2023-04-10T17:20:53.061Z,100.00
2023-04-10T17:35:55.649Z,100.00
2023-04-10T17:50:57.813Z,100.00
2023-04-10T18:05:59.836Z,100.00
2023-04-10T18:21:06.191Z,100.00
2023-04-10T18:36:08.488Z,100.00
2023-04-10T18:51:11.690Z,100.00
2023-04-10T19:06:13.395Z,100.00
2023-04-10T19:21:15.429Z,100.00
2023-04-10T19:36:18.452Z,100.00
2023-04-10T19:51:21.101Z,100.00
2023-04-10T20:06:22.738Z,100.00
2023-04-10T20:21:24.464Z,100.00
2023-04-10T20:36:26.584Z,100.00
2023-04-10T20:51:28.957Z,100.00
2023-04-10T21:06:33.332Z,100.00
2023-04-10T21:21:35.492Z,100.00
2023-04-10T21:36:38.285Z,100.00
2023-04-10T21:51:42.873Z,100.00
2023-04-10T22:06:44.533Z,100.00
2023-04-10T22:21:46.269Z,100.00
2023-04-10T22:36:48.395Z,100.00
2023-04-10T22:51:51.380Z,100.00
2023-04-10T23:06:53.268Z,100.00
2023-04-10T23:21:55.792Z,100.00
2023-04-10T23:36:58.305Z,100.00
2023-04-10T23:51:59.913Z,100.00
